createdAt,value
2019-03-30T00:01:54.989Z,16.85
2019-03-30T00:04:24.747Z,20.17
2019-03-30T00:06:53.721Z,16.93
2019-03-30T00:09:23.900Z,18.70
2019-03-30T00:11:57.634Z,16.30
2019-03-30T00:14:28.923Z,17.30
2019-03-30T00:16:57.926Z,18.12
2019-03-30T00:19:34.880Z,16.60
2019-03-30T00:21:58.181Z,19.20
2019-03-30T00:24:27.248Z,15.28
2019-03-30T00:26:56.094Z,16.45
2019-03-30T00:29:25.330Z,16.95
2019-03-30T00:31:54.177Z,16.30
2019-03-30T00:34:24.215Z,16.40
2019-03-30T00:36:53.209Z,18.98
2019-03-30T00:39:21.998Z,16.42
2019-03-30T00:41:50.757Z,16.60
2019-03-30T00:44:19.631Z,16.40
2019-03-30T00:46:48.495Z,17.30
2019-03-30T00:49:17.317Z,17.48
2019-03-30T00:51:46.172Z,17.67
2019-03-30T00:54:15.510Z,23.50
2019-03-30T00:56:44.424Z,17.75
2019-03-30T00:59:13.701Z,16.37
2019-03-30T01:01:42.642Z,18.73
2019-03-30T01:04:11.484Z,14.07
2019-03-30T01:06:41.510Z,14.73
2019-03-30T01:09:10.562Z,16.23
2019-03-30T01:11:39.354Z,16.90
2019-03-30T01:14:09.543Z,17.70
2019-03-30T01:16:38.379Z,15.65
2019-03-30T01:19:07.523Z,15.63
2019-03-30T01:21:36.415Z,19.37
2019-03-30T01:24:05.256Z,16.20
2019-03-30T01:26:34.192Z,16.07
2019-03-30T01:29:03.492Z,15.05
2019-03-30T01:31:32.310Z,15.78
2019-03-30T01:34:01.196Z,15.40
2019-03-30T01:36:30.075Z,16.62
2019-03-30T01:38:59.624Z,15.25
2019-03-30T01:41:28.449Z,14.75
2019-03-30T01:43:57.264Z,16.82
2019-03-30T01:46:26.145Z,15.85
2019-03-30T01:48:54.941Z,14.38
2019-03-30T01:51:23.865Z,13.28
2019-03-30T01:53:54.111Z,16.85
2019-03-30T01:56:23.055Z,17.20
2019-03-30T01:58:51.942Z,20.25
2019-03-30T02:01:20.940Z,17.05
2019-03-30T02:03:49.972Z,17.73
2019-03-30T02:06:18.833Z,15.70
2019-03-30T02:08:49.736Z,15.72
2019-03-30T02:11:18.599Z,18.82
2019-03-30T02:13:47.401Z,16.45
2019-03-30T02:16:17.516Z,22.50
2019-03-30T02:18:46.374Z,16.27
2019-03-30T02:21:15.270Z,16.15
2019-03-30T02:23:44.102Z,15.20
2019-03-30T02:26:12.894Z,16.20
2019-03-30T02:28:41.788Z,16.90
2019-03-30T02:31:10.647Z,14.83
2019-03-30T02:33:39.451Z,17.90
2019-03-30T02:36:08.260Z,20.97
2019-03-30T02:38:37.362Z,15.13
2019-03-30T02:41:08.348Z,16.70
2019-03-30T02:43:36.925Z,14.05
2019-03-30T02:46:06.854Z,13.28
2019-03-30T02:48:35.626Z,17.25
2019-03-30T02:51:04.534Z,15.05
2019-03-30T02:53:33.305Z,16.20
2019-03-30T02:56:02.161Z,14.35
2019-03-30T02:58:31.037Z,13.78
2019-03-30T03:01:00.480Z,16.25
2019-03-30T03:03:29.365Z,18.20
2019-03-30T03:05:59.248Z,13.83
2019-03-30T03:08:28.187Z,13.98
2019-03-30T03:10:57.028Z,17.00
2019-03-30T03:13:25.801Z,13.98
2019-03-30T03:15:54.677Z,14.63
2019-03-30T03:18:23.477Z,14.50
2019-03-30T03:21:06.604Z,14.45
2019-03-30T03:23:23.394Z,18.62
2019-03-30T03:25:53.701Z,12.68
2019-03-30T03:28:22.533Z,15.72
2019-03-30T03:30:51.397Z,15.53
2019-03-30T03:33:20.319Z,15.75
2019-03-30T03:35:49.252Z,15.60
2019-03-30T03:38:18.142Z,13.32
2019-03-30T03:40:48.642Z,16.95
2019-03-30T03:43:17.529Z,17.48
2019-03-30T03:45:46.334Z,15.32
2019-03-30T03:48:15.192Z,15.05
2019-03-30T03:50:45.415Z,13.83
2019-03-30T03:53:15.088Z,14.70
2019-03-30T03:55:45.275Z,14.68
2019-03-30T03:58:15.606Z,12.85
2019-03-30T04:00:45.261Z,15.60
2019-03-30T04:03:17.283Z,14.95
2019-03-30T04:05:47.351Z,14.25
2019-03-30T04:08:16.200Z,14.83
2019-03-30T04:10:47.830Z,13.38
2019-03-30T04:13:16.766Z,16.45
2019-03-30T04:15:47.598Z,16.77
2019-03-30T04:18:18.245Z,16.23
2019-03-30T04:20:47.035Z,15.38
2019-03-30T04:23:18.239Z,15.78
2019-03-30T04:25:47.938Z,17.35
2019-03-30T04:28:17.094Z,17.87
2019-03-30T04:30:45.899Z,17.07
2019-03-30T04:33:16.170Z,16.25
2019-03-30T04:35:45.993Z,16.77
2019-03-30T04:38:16.228Z,14.68
2019-03-30T04:40:45.862Z,14.43
2019-03-30T04:43:14.685Z,16.73
2019-03-30T04:45:44.517Z,16.65
2019-03-30T04:48:14.057Z,16.82
2019-03-30T04:50:44.335Z,27.87
2019-03-30T04:53:13.230Z,17.62
2019-03-30T04:55:42.023Z,21.02
2019-03-30T04:58:11.179Z,17.37
2019-03-30T05:00:40.949Z,19.87
2019-03-30T05:03:11.122Z,17.73
2019-03-30T05:05:42.911Z,17.80
2019-03-30T05:08:10.354Z,17.98
2019-03-30T05:10:39.204Z,17.27
2019-03-30T05:13:10.217Z,20.08
2019-03-30T05:15:41.950Z,16.70
2019-03-30T05:18:12.910Z,17.02
2019-03-30T05:20:41.734Z,19.12
2019-03-30T05:23:12.115Z,18.00
2019-03-30T05:25:42.354Z,18.17
2019-03-30T05:28:11.203Z,21.68
2019-03-30T05:30:40.721Z,17.95
2019-03-30T05:33:09.514Z,16.27
2019-03-30T05:35:40.360Z,15.48
2019-03-30T05:38:09.207Z,17.57
2019-03-30T05:40:39.044Z,18.45
2019-03-30T05:43:07.901Z,18.67
2019-03-30T05:45:38.169Z,17.32
2019-03-30T05:48:06.981Z,17.37
2019-03-30T05:50:35.817Z,17.12
2019-03-30T05:53:04.638Z,18.35
2019-03-30T05:55:33.587Z,17.37
2019-03-30T05:58:02.322Z,19.00
2019-03-30T06:00:31.789Z,16.75
2019-03-30T06:03:01.595Z,21.40
2019-03-30T06:05:31.002Z,18.87
2019-03-30T06:07:59.938Z,15.70
2019-03-30T06:10:28.754Z,19.48
2019-03-30T06:12:57.663Z,20.05
2019-03-30T06:15:27.439Z,19.27
2019-03-30T06:17:56.225Z,19.30
2019-03-30T06:20:25.122Z,17.62
2019-03-30T06:22:56.343Z,20.35
2019-03-30T06:25:25.270Z,21.80
2019-03-30T06:27:54.019Z,19.32
2019-03-30T06:30:25.831Z,21.35
2019-03-30T06:32:54.851Z,19.57
2019-03-30T06:35:23.732Z,19.32
2019-03-30T06:37:52.630Z,19.30
2019-03-30T06:40:22.115Z,18.15
2019-03-30T06:42:50.953Z,18.50
2019-03-30T06:45:21.847Z,21.33
2019-03-30T06:47:50.711Z,19.50
2019-03-30T06:50:19.736Z,21.62
2019-03-30T06:52:57.346Z,17.95
2019-03-30T06:55:20.999Z,19.95
2019-03-30T06:57:49.876Z,17.57
2019-03-30T07:00:21.632Z,20.15
2019-03-30T07:02:50.489Z,19.30
2019-03-30T07:05:23.919Z,17.62
2019-03-30T07:07:52.880Z,19.57
2019-03-30T07:10:24.017Z,20.02
2019-03-30T07:12:54.381Z,22.85
2019-03-30T07:15:25.797Z,20.72
2019-03-30T07:17:57.180Z,23.73
2019-03-30T07:20:27.832Z,21.10
2019-03-30T07:23:10.684Z,20.62
2019-03-30T07:25:45.405Z,20.90
2019-03-30T07:28:15.202Z,18.12
2019-03-30T07:30:44.048Z,22.82
2019-03-30T07:33:12.786Z,21.00
2019-03-30T07:35:42.917Z,21.23
2019-03-30T07:38:11.794Z,20.25
2019-03-30T07:40:40.565Z,20.88
2019-03-30T07:43:09.427Z,26.68
2019-03-30T07:45:39.572Z,20.70
2019-03-30T07:48:09.034Z,20.57
2019-03-30T07:50:37.914Z,20.25
2019-03-30T07:53:07.526Z,20.30
2019-03-30T07:55:36.642Z,30.15
2019-03-30T07:58:05.726Z,24.70
2019-03-30T08:00:34.699Z,22.25
2019-03-30T08:03:04.220Z,19.92
2019-03-30T08:05:33.176Z,20.60
2019-03-30T08:08:03.296Z,21.42
2019-03-30T08:10:32.209Z,21.12
2019-03-30T08:13:01.127Z,25.48
2019-03-30T08:15:30.787Z,23.52
2019-03-30T08:17:59.680Z,21.30
2019-03-30T08:20:31.304Z,21.52
2019-03-30T08:23:00.274Z,21.33
2019-03-30T08:25:29.377Z,22.52
2019-03-30T08:27:58.274Z,24.00
2019-03-30T08:30:27.302Z,20.50
2019-03-30T08:32:57.721Z,22.37
2019-03-30T08:35:26.620Z,22.42
2019-03-30T08:37:56.295Z,21.73
2019-03-30T08:40:25.273Z,21.90
2019-03-30T08:42:56.476Z,20.05
2019-03-30T08:45:25.418Z,20.37
2019-03-30T08:47:54.333Z,20.97
2019-03-30T08:50:23.240Z,19.12
2019-03-30T08:52:52.566Z,21.30
2019-03-30T08:55:21.430Z,29.98
2019-03-30T08:57:51.640Z,19.20
2019-03-30T09:00:23.369Z,22.13
2019-03-30T09:02:52.265Z,23.87
2019-03-30T09:05:21.077Z,21.37
2019-03-30T09:07:49.987Z,25.10
2019-03-30T09:10:19.146Z,22.40
2019-03-30T09:12:47.929Z,22.42
2019-03-30T09:15:16.867Z,21.57
2019-03-30T09:17:45.817Z,21.23
2019-03-30T09:20:14.725Z,18.23
2019-03-30T09:22:43.592Z,20.60
2019-03-30T09:25:12.472Z,21.75
2019-03-30T09:27:41.424Z,22.13
2019-03-30T09:30:12.589Z,30.50
2019-03-30T09:32:44.823Z,23.77
2019-03-30T09:35:12.490Z,22.60
2019-03-30T09:37:41.315Z,27.02
2019-03-30T09:40:10.345Z,23.73
2019-03-30T09:42:48.450Z,25.75
2019-03-30T09:45:17.353Z,40.50
2019-03-30T09:47:46.247Z,22.07
2019-03-30T09:50:15.165Z,22.77
2019-03-30T09:52:45.433Z,21.30
2019-03-30T09:55:15.900Z,20.48
2019-03-30T09:57:45.525Z,22.55
2019-03-30T10:00:14.706Z,21.70
2019-03-30T10:02:45.430Z,22.15
2019-03-30T10:05:14.306Z,22.52
2019-03-30T10:07:43.138Z,22.67
2019-03-30T10:10:11.957Z,23.15
2019-03-30T10:12:40.830Z,25.77
2019-03-30T10:15:09.953Z,21.52
2019-03-30T10:17:38.920Z,22.27
2019-03-30T10:20:08.013Z,20.05
2019-03-30T10:22:36.878Z,21.02
2019-03-30T10:25:06.627Z,24.37
2019-03-30T10:27:36.598Z,18.48
2019-03-30T10:30:07.843Z,17.15
2019-03-30T10:32:36.691Z,21.35
2019-03-30T10:35:07.694Z,17.07
2019-03-30T10:37:36.497Z,19.07
2019-03-30T10:40:08.538Z,21.05
2019-03-30T10:42:37.442Z,23.30
2019-03-30T10:45:10.221Z,23.67
2019-03-30T10:47:39.031Z,21.15
2019-03-30T10:50:09.215Z,17.75
2019-03-30T10:52:38.037Z,25.05
2019-03-30T10:55:07.881Z,26.62
2019-03-30T10:57:37.285Z,15.90
2019-03-30T11:00:09.298Z,15.58
2019-03-30T11:02:40.403Z,15.32
2019-03-30T11:05:10.702Z,14.98
2019-03-30T11:07:40.988Z,17.92
2019-03-30T11:10:13.059Z,13.93
2019-03-30T11:12:42.969Z,14.95
2019-03-30T11:15:11.884Z,17.85
2019-03-30T11:17:40.715Z,15.38
2019-03-30T11:20:09.544Z,15.50
2019-03-30T11:22:38.374Z,15.43
2019-03-30T11:25:09.061Z,24.10
2019-03-30T11:27:38.005Z,18.75
2019-03-30T11:30:10.590Z,17.40
2019-03-30T11:32:39.442Z,19.07
2019-03-30T11:35:11.668Z,15.78
2019-03-30T11:37:40.577Z,16.12
2019-03-30T11:40:09.482Z,13.50
2019-03-30T11:42:38.413Z,27.10
2019-03-30T11:45:07.798Z,17.40
2019-03-30T11:47:36.639Z,15.63
2019-03-30T11:50:07.068Z,16.32
2019-03-30T11:52:37.994Z,14.85
2019-03-30T11:55:21.118Z,20.40
2019-03-30T11:57:38.767Z,21.82
2019-03-30T12:00:08.078Z,16.42
2019-03-30T12:02:36.937Z,17.67
2019-03-30T12:05:11.011Z,13.88
2019-03-30T12:07:44.182Z,15.50
2019-03-30T12:10:23.302Z,17.23
2019-03-30T12:12:52.261Z,14.05
2019-03-30T12:15:21.606Z,14.23
2019-03-30T12:17:50.546Z,12.78
2019-03-30T12:20:19.489Z,16.02
2019-03-30T12:22:48.351Z,18.48
2019-03-30T12:25:17.338Z,14.35
2019-03-30T12:27:50.378Z,17.60
2019-03-30T12:30:21.423Z,14.73
2019-03-30T12:32:50.295Z,21.25
2019-03-30T12:35:21.406Z,15.90
2019-03-30T12:37:51.125Z,16.87
2019-03-30T12:40:24.774Z,16.55
2019-03-30T12:42:54.128Z,16.62
2019-03-30T12:45:24.470Z,15.78
2019-03-30T12:47:57.807Z,15.55
2019-03-30T12:50:26.607Z,15.98
2019-03-30T12:52:56.482Z,15.28
2019-03-30T12:55:30.488Z,17.17
2019-03-30T12:57:59.398Z,17.25
2019-03-30T13:00:28.348Z,17.52
2019-03-30T13:02:57.416Z,17.25
2019-03-30T13:05:26.302Z,15.83
2019-03-30T13:07:55.060Z,16.90
2019-03-30T13:10:23.901Z,14.13
2019-03-30T13:12:52.849Z,16.27
2019-03-30T13:15:22.875Z,13.72
2019-03-30T13:17:51.785Z,18.40
2019-03-30T13:20:23.214Z,12.23
2019-03-30T13:22:54.422Z,16.90
2019-03-30T13:25:23.267Z,14.35
2019-03-30T13:27:53.511Z,16.90
2019-03-30T13:30:22.819Z,13.10
2019-03-30T13:32:53.455Z,13.25
2019-03-30T13:35:22.283Z,13.13
2019-03-30T13:37:51.190Z,14.05
2019-03-30T13:40:20.066Z,13.00
2019-03-30T13:42:48.918Z,17.25
2019-03-30T13:45:17.788Z,16.07
2019-03-30T13:47:46.731Z,12.98
2019-03-30T13:50:15.621Z,13.25
2019-03-30T13:52:45.135Z,12.07
2019-03-30T13:55:14.689Z,14.05
2019-03-30T13:57:43.481Z,17.55
2019-03-30T14:00:12.982Z,14.07
2019-03-30T14:02:43.991Z,15.50
2019-03-30T14:05:12.891Z,14.03
2019-03-30T14:07:41.731Z,15.28
2019-03-30T14:10:11.250Z,23.65
2019-03-30T14:12:40.466Z,15.65
2019-03-30T14:15:09.732Z,14.53
2019-03-30T14:17:38.642Z,14.75
2019-03-30T14:20:07.986Z,15.10
2019-03-30T14:22:38.775Z,15.78
2019-03-30T14:25:11.976Z,14.90
2019-03-30T14:27:39.679Z,12.80
2019-03-30T14:30:11.257Z,19.30
2019-03-30T14:32:40.579Z,17.57
2019-03-30T14:35:12.006Z,16.75
2019-03-30T14:37:40.804Z,17.25
2019-03-30T14:40:12.186Z,17.32
2019-03-30T14:42:41.048Z,17.67
2019-03-30T14:45:10.540Z,15.70
2019-03-30T14:47:39.451Z,18.85
2019-03-30T14:50:10.009Z,19.37
2019-03-30T14:52:38.997Z,25.12
2019-03-30T14:55:09.994Z,17.57
2019-03-30T14:57:38.787Z,17.50
2019-03-30T15:00:10.502Z,17.48
2019-03-30T15:02:39.502Z,24.32
2019-03-30T15:05:09.152Z,17.62
2019-03-30T15:07:38.067Z,16.80
2019-03-30T15:10:08.938Z,17.17
2019-03-30T15:12:38.372Z,21.82
2019-03-30T15:15:10.452Z,18.02
2019-03-30T15:17:40.987Z,20.70
2019-03-30T15:20:10.863Z,32.55
2019-03-30T15:22:41.083Z,17.35
2019-03-30T15:25:11.005Z,20.60
2019-03-30T15:27:39.845Z,20.00
2019-03-30T15:30:11.144Z,20.97
2019-03-30T15:32:39.909Z,18.55
2019-03-30T15:35:10.833Z,19.57
2019-03-30T15:37:39.686Z,19.12
2019-03-30T15:40:08.622Z,22.52
2019-03-30T15:42:40.021Z,21.40
2019-03-30T15:45:10.514Z,20.70
2019-03-30T15:47:39.422Z,19.50
2019-03-30T15:50:08.852Z,20.05
2019-03-30T15:52:37.714Z,19.70
2019-03-30T15:55:07.786Z,18.73
2019-03-30T15:57:37.260Z,19.98
2019-03-30T16:00:13.827Z,20.15
2019-03-30T16:02:42.726Z,17.87
2019-03-30T16:05:15.210Z,20.60
2019-03-30T16:07:42.579Z,20.68
2019-03-30T16:10:11.540Z,19.48
2019-03-30T16:12:40.349Z,20.27
2019-03-30T16:15:09.691Z,21.75
2019-03-30T16:17:38.573Z,21.73
2019-03-30T16:20:07.685Z,20.17
2019-03-30T16:22:36.566Z,22.27
2019-03-30T16:25:07.550Z,33.00
2019-03-30T16:27:39.148Z,23.07
2019-03-30T16:30:09.225Z,20.40
2019-03-30T16:32:39.499Z,23.15
2019-03-30T16:35:08.497Z,18.65
2019-03-30T16:37:40.404Z,22.48
2019-03-30T16:40:09.341Z,19.40
2019-03-30T16:42:39.054Z,18.35
2019-03-30T16:45:08.617Z,16.15
2019-03-30T16:47:38.977Z,19.40
2019-03-30T16:50:09.598Z,15.70
2019-03-30T16:52:40.950Z,18.70
2019-03-30T16:55:09.320Z,20.37
2019-03-30T16:57:43.688Z,18.65
2019-03-30T17:00:09.802Z,18.98
2019-03-30T17:02:38.609Z,17.95
2019-03-30T17:05:08.481Z,17.82
2019-03-30T17:07:37.414Z,18.85
2019-03-30T17:10:08.023Z,19.60
2019-03-30T17:12:37.118Z,17.85
2019-03-30T17:15:07.422Z,20.80
2019-03-30T17:17:36.245Z,19.65
2019-03-30T17:20:08.559Z,19.12
2019-03-30T17:22:38.555Z,18.92
2019-03-30T17:25:08.783Z,19.25
2019-03-30T17:27:37.922Z,20.30
2019-03-30T17:30:08.700Z,24.10
2019-03-30T17:32:37.531Z,21.75
2019-03-30T17:35:07.087Z,23.05
2019-03-30T17:37:36.032Z,21.90
2019-03-30T17:40:07.561Z,21.42
2019-03-30T17:42:38.685Z,23.77
2019-03-30T17:45:09.039Z,26.70
2019-03-30T17:47:37.984Z,23.20
2019-03-30T17:50:07.902Z,19.55
2019-03-30T17:52:36.839Z,21.87
2019-03-30T17:55:07.603Z,17.87
2019-03-30T17:57:36.423Z,20.25
2019-03-30T18:00:11.144Z,22.13
2019-03-30T18:02:43.057Z,20.10
2019-03-30T18:05:13.048Z,23.95
2019-03-30T18:07:41.902Z,24.20
2019-03-30T18:10:13.175Z,28.25
2019-03-30T18:12:42.049Z,20.10
2019-03-30T18:15:11.562Z,21.77
2019-03-30T18:17:40.481Z,25.25
2019-03-30T18:20:09.788Z,23.18
2019-03-30T18:22:38.725Z,19.02
2019-03-30T18:25:07.781Z,22.62
2019-03-30T18:27:36.805Z,24.72
2019-03-30T18:30:06.831Z,24.82
2019-03-30T18:32:35.957Z,24.32
2019-03-30T18:35:06.590Z,21.45
2019-03-30T18:37:36.519Z,23.75
2019-03-30T18:40:07.790Z,21.50
2019-03-30T18:42:38.074Z,27.07
2019-03-30T18:45:07.926Z,32.13
2019-03-30T18:47:36.774Z,31.27
2019-03-30T18:50:07.419Z,26.90
2019-03-30T18:52:37.117Z,28.75
2019-03-30T18:55:07.310Z,26.40
2019-03-30T18:57:36.114Z,30.95
2019-03-30T19:00:07.198Z,29.87
2019-03-30T19:02:37.279Z,27.37
2019-03-30T19:05:07.084Z,30.60
2019-03-30T19:07:35.921Z,29.42
2019-03-30T19:10:06.935Z,34.45
2019-03-30T19:12:37.208Z,35.65
2019-03-30T19:15:07.467Z,39.78
2019-03-30T19:17:36.428Z,42.00
2019-03-30T19:20:07.145Z,40.12
2019-03-30T19:22:36.022Z,60.73
2019-03-30T19:25:07.160Z,37.95
2019-03-30T19:27:35.975Z,34.35
2019-03-30T19:30:07.738Z,38.00
2019-03-30T19:32:37.605Z,37.85
2019-03-30T19:35:08.369Z,39.42
2019-03-30T19:37:37.129Z,38.40
2019-03-30T19:40:06.951Z,42.67
2019-03-30T19:42:35.883Z,39.35
2019-03-30T19:45:07.335Z,39.80
2019-03-30T19:47:38.784Z,40.43
2019-03-30T19:50:08.653Z,49.00
2019-03-30T19:52:40.093Z,57.03
2019-03-30T19:55:08.377Z,41.73
2019-03-30T19:57:37.208Z,42.10
2019-03-30T20:00:13.953Z,42.98
2019-03-30T20:02:43.669Z,53.65
2019-03-30T20:05:14.999Z,44.30
2019-03-30T20:07:43.985Z,48.38
2019-03-30T20:10:14.355Z,41.60
2019-03-30T20:12:47.543Z,37.63
2019-03-30T20:15:16.968Z,37.80
2019-03-30T20:17:45.788Z,39.42
2019-03-30T20:20:14.805Z,43.35
2019-03-30T20:22:47.228Z,45.65
2019-03-30T20:25:21.842Z,44.53
2019-03-30T20:27:56.168Z,42.73
2019-03-30T20:30:30.605Z,43.75
2019-03-30T20:33:00.864Z,49.25
2019-03-30T20:35:30.968Z,42.83
2019-03-30T20:38:01.048Z,43.17
2019-03-30T20:40:36.056Z,47.13
2019-03-30T20:43:07.040Z,45.73
2019-03-30T20:45:38.443Z,45.28
2019-03-30T20:48:07.267Z,47.60
2019-03-30T20:50:36.097Z,51.58
2019-03-30T20:53:07.834Z,43.42
2019-03-30T20:55:39.469Z,48.55
2019-03-30T20:58:10.522Z,53.85
2019-03-30T21:00:43.580Z,59.75
2019-03-30T21:03:12.590Z,56.28
2019-03-30T21:05:42.902Z,53.85
2019-03-30T21:08:13.546Z,57.33
2019-03-30T21:10:44.618Z,55.85
2019-03-30T21:13:14.750Z,55.83
2019-03-30T21:15:44.776Z,98.67
2019-03-30T21:18:13.612Z,59.38
2019-03-30T21:20:55.191Z,61.13
2019-03-30T21:23:25.656Z,51.55
2019-03-30T21:26:02.153Z,53.75
2019-03-30T21:28:34.770Z,53.92
2019-03-30T21:31:05.819Z,60.38
2019-03-30T21:33:35.585Z,56.65
2019-03-30T21:36:19.743Z,59.80
2019-03-30T21:38:48.359Z,54.93
2019-03-30T21:41:20.920Z,52.88
2019-03-30T21:43:50.763Z,58.45
2019-03-30T21:46:19.779Z,57.27
2019-03-30T21:48:48.652Z,58.17
2019-03-30T21:51:17.858Z,56.98
2019-03-30T21:53:48.781Z,56.83
2019-03-30T21:56:17.619Z,55.70
2019-03-30T21:58:46.601Z,54.55
2019-03-30T22:01:18.055Z,62.10
2019-03-30T22:03:46.912Z,56.05
2019-03-30T22:06:15.803Z,65.67
2019-03-30T22:08:46.126Z,53.87
2019-03-30T22:11:15.750Z,70.57
2019-03-30T22:13:44.630Z,65.87
2019-03-30T22:16:16.682Z,59.35
2019-03-30T22:18:45.432Z,53.68
2019-03-30T22:21:14.371Z,94.85
2019-03-30T22:23:43.246Z,58.58
2019-03-30T22:26:24.956Z,69.30
2019-03-30T22:28:58.349Z,59.15
2019-03-30T22:33:58.493Z,58.28
2019-03-30T22:36:27.652Z,55.73
2019-03-30T22:38:56.547Z,55.33
2019-03-30T22:41:28.663Z,60.50
2019-03-30T22:43:58.965Z,53.63
2019-03-30T22:46:29.013Z,52.75
2019-03-30T22:48:58.506Z,64.58
2019-03-30T22:51:29.019Z,53.28
2019-03-30T22:53:57.824Z,62.65
2019-03-30T22:56:26.748Z,58.35
2019-03-30T22:58:55.879Z,69.92
2019-03-30T23:01:25.610Z,57.80
2019-03-30T23:03:54.462Z,58.45
2019-03-30T23:06:23.441Z,60.35
2019-03-30T23:08:52.547Z,56.37
2019-03-30T23:11:21.385Z,55.17
2019-03-30T23:13:50.258Z,52.48
2019-03-30T23:16:21.373Z,55.73
2019-03-30T23:18:50.422Z,68.70
2019-03-30T23:21:19.937Z,59.00
2019-03-30T23:23:48.802Z,56.53
2019-03-30T23:26:17.605Z,57.80
2019-03-30T23:28:46.419Z,65.03
2019-03-30T23:31:15.300Z,66.07
2019-03-30T23:33:44.121Z,65.60
2019-03-30T23:36:14.898Z,58.35
2019-03-30T23:38:44.308Z,62.15
2019-03-30T23:41:17.279Z,65.65
2019-03-30T23:43:47.477Z,58.58
2019-03-30T23:46:17.635Z,58.60
2019-03-30T23:48:48.785Z,62.58
2019-03-30T23:51:17.817Z,74.85
2019-03-30T23:53:46.702Z,57.43
2019-03-30T23:56:24.153Z,62.43
2019-03-30T23:58:53.757Z,54.88
